• Join FlightAware (Why Join?)
  • Login
  • US Flag 
09:33AM EDT


 

Airport Tracker/Info


-or-


 

Live Flight TrackerFlight Track Log ✈ ASQ5025 ✈ 28-Apr-2013 ✈ KBTV - KLGA

Flight Track Log - Related Links

Times and Time Zones

All times are in EDT time to prevent confusion due to time zone crossing. See the ASQ5025 flight status page for this flight to view local times or setup timezone preferences in your user account.

Time Position Orientation Groundspeed Altitude Reporting Facility
EDT Latitude Longitude Course Direction KTS MPH feet Rate Location/Type
11:20AM 44.3758 -73.1342 197° South 179 206 6,300  Level Boston Center
11:21AM 44.3092 -73.1625 197° South 228 262 8,600 2,520 Climbing Boston Center
11:22AM 44.2339 -73.1933 196° South 269 310 11,400 2,820 Climbing Boston Center
11:23AM 44.1547 -73.1808 174° South 295 339 14,300 2,700 Climbing Boston Center
11:24AM 44.0739 -73.1250 154° Southeast 301 346 16,800 2,160 Climbing Boston Center
11:25AM 43.9886 -73.0719 156° South 326 375 18,700 2,280 Climbing Boston Center
11:26AM 43.8869 -73.0247 161° South 347 399 21,400 1,620 Climbing Boston Center
11:27AM 43.7992 -73.0786 204° Southwest 330 380 22,000 300 Climbing Boston Center
11:28AM 43.7133 -73.1381 207° Southwest 346 398 22,000  Level Boston Center
11:29AM 43.6253 -73.1972 206° Southwest 346 398 22,000  Level Boston Center
11:30AM 43.5292 -73.2647 207° Southwest 361 415 22,000  Level Boston Center
11:31AM 43.4306 -73.3319 206° Southwest 381 438 22,000  Level Boston Center
11:32AM 43.3322 -73.4019 207° Southwest 395 455 22,000  Level Boston Center
11:33AM 43.2356 -73.4689 207° Southwest 395 455 22,000  Level Boston Center
11:34AM 43.1392 -73.5328 206° Southwest 395 455 22,000  Level Boston Center
11:35AM 43.0511 -73.5964 208° Southwest 390 449 22,000  Level Boston Center
11:36AM 42.9567 -73.6628 207° Southwest 390 449 22,000  Level Boston Center
11:37AM 42.8600 -73.7261 206° Southwest 390 449 22,000  Level Boston Center
11:38AM 42.7656 -73.7919 207° Southwest 385 443 22,000  Level Boston Center
11:39AM 42.6550 -73.7867 178° South 380 437 22,000  Level Boston Center
11:40AM 42.5364 -73.7644 172° South 387 445 22,000 -480 Level Boston Center
11:41AM 42.4283 -73.7425 171° South 387 445 21,100 -1,140 Descending Boston Center
11:42AM 42.3222 -73.7206 171° South 387 445 19,600 -1,440 Descending Boston Center
11:43AM 42.1975 -73.6928 171° South 381 438 18,000 -840 Descending Boston Center
11:44AM 42.0956 -73.6711 171° South 381 438 18,000 -600 Level Boston Center
11:45AM 41.9981 -73.6497 171° South 369 425 16,800 -1,380 Descending Boston Center
11:46AM 41.9147 -73.6481 179° South 352 405 15,300 -1,680 Descending Boston Center
11:47AM 41.8225 -73.6908 199° South 324 373 13,500 -1,680 Descending Boston Center
11:48AM 41.7553 -73.7258 201° Southwest 302 348 12,000 -1,500 Descending Boston Center
11:49AM 41.6675 -73.7461 190° South 297 342 10,500 -1,200 Descending Boston Center
11:50AM 41.5967 -73.7586 188° South 291 335 9,600 -780 Descending Boston Center
11:51AM 41.5089 -73.7736 187° South 291 335 9,000 -300 Descending Boston Center
11:52AM 41.4167 -73.7833 185° South 293 337 9,000 -420 Level New York TRACON
11:53AM 41.3333 -73.7833 180° South 281 323 8,100 -540 Descending New York TRACON
11:54AM 41.2667 -73.7333 151° Southeast 264 304 8,000  Descending New York TRACON
11:55AM 41.2167 -73.6833 143° Southeast 208 239 8,100 -240 Climbing New York TRACON
11:56AM 41.1833 -73.6500 143° Southeast 210 242 7,600 -900 Descending New York TRACON
11:57AM 41.1333 -73.6167 153° Southeast 208 239 6,300 -900 Descending New York TRACON
11:58AM 41.0667 -73.6333 191° South 195 224 5,800 -900 Descending New York TRACON
11:59AM 41.0333 -73.6667 217° Southwest 187 215 4,600 -660 Descending New York TRACON
12:01PM 40.9514 -73.7153 217° Southwest  Level FlightAware Approximate
12:01PM 40.9333 -73.7500 217° Southwest 186 214 3,900  Level New York TRACON
12:02PM 40.9000 -73.7833 217° Southwest 173 199 2,700 -1,020 Descending New York TRACON
12:03PM 40.8667 -73.8000 201° Southwest 150 173 1,900 -840 Descending New York TRACON
12:04PM 40.8333 -73.8333 217° Southwest 137 158 1,100 -780 Descending New York TRACON
12:05PM 40.8000 -73.8667 217° Southwest 132 152 400 -720 Descending New York TRACON
12:07PM 40.7772 -73.8726 180° South  Level Estimated